createdAt,value
2022-12-13T00:02:10.090Z,30.45
2022-12-13T00:07:12.845Z,33.28
2022-12-13T00:12:16.145Z,29.92
2022-12-13T00:17:20.643Z,25.75
2022-12-13T00:22:23.350Z,31.00
2022-12-13T00:27:26.121Z,29.10
2022-12-13T00:32:30.540Z,29.40
2022-12-13T00:37:33.241Z,28.52
2022-12-13T00:42:36.191Z,28.27
2022-12-13T00:47:40.428Z,28.23
2022-12-13T00:52:43.241Z,28.23
2022-12-13T00:57:46.018Z,30.77
2022-12-13T01:02:50.157Z,31.35
2022-12-13T01:07:52.902Z,28.17
2022-12-13T01:12:55.714Z,31.45
2022-12-13T01:17:59.849Z,31.30
2022-12-13T01:23:02.874Z,25.90
2022-12-13T01:28:06.125Z,30.48
2022-12-13T01:33:14.042Z,27.63
2022-12-13T01:38:17.426Z,29.33
2022-12-13T01:43:20.319Z,29.33
2022-12-13T01:48:29.866Z,28.25
2022-12-13T01:53:36.512Z,27.02
2022-12-13T02:03:44.395Z,26.05
2022-12-13T02:08:47.765Z,26.85
2022-12-13T02:13:50.532Z,27.08
2022-12-13T02:19:14.707Z,24.85
2022-12-13T02:24:46.939Z,28.50
2022-12-13T02:30:22.010Z,27.40
2022-12-13T02:35:29.540Z,26.20
2022-12-13T02:40:35.798Z,27.52
2022-12-13T02:45:45.485Z,21.65
2022-12-13T02:50:52.040Z,24.00
2022-12-13T02:55:54.811Z,21.58
2022-12-13T03:01:30.241Z,23.90
2022-12-13T03:06:40.724Z,26.23
2022-12-13T03:12:16.890Z,28.77
2022-12-13T03:17:23.218Z,26.27
2022-12-13T03:22:26.138Z,27.40
2022-12-13T03:27:29.103Z,26.40
2022-12-13T03:32:33.402Z,15.70
2022-12-13T03:37:36.277Z,23.08
2022-12-13T03:42:39.342Z,23.63
2022-12-13T03:47:43.516Z,22.95
2022-12-13T03:52:47.570Z,23.42
2022-12-13T03:57:50.365Z,22.23
2022-12-13T04:02:54.666Z,23.17
2022-12-13T04:08:00.654Z,22.58
2022-12-13T04:13:21.541Z,22.60
2022-12-13T04:18:25.700Z,23.40
2022-12-13T04:23:28.601Z,22.98
2022-12-13T04:28:32.087Z,21.30
2022-12-13T04:33:36.263Z,18.70
2022-12-13T04:38:39.005Z,21.17
2022-12-13T04:43:41.752Z,19.80
2022-12-13T04:48:45.825Z,16.08
2022-12-13T04:53:48.674Z,18.65
2022-12-13T04:58:51.515Z,15.07
2022-12-13T05:03:55.588Z,19.42
2022-12-13T05:09:00.795Z,19.50
2022-12-13T05:14:04.128Z,20.25
2022-12-13T05:19:08.484Z,22.98
2022-12-13T05:24:11.396Z,22.27
2022-12-13T05:29:14.202Z,21.95
2022-12-13T05:34:18.635Z,22.67
2022-12-13T05:39:28.383Z,22.00
2022-12-13T05:44:32.877Z,21.55
2022-12-13T05:49:37.048Z,22.60
2022-12-13T05:54:42.989Z,23.80
2022-12-13T05:59:45.841Z,20.25
2022-12-13T06:04:50.917Z,21.42
2022-12-13T06:09:53.704Z,21.50
2022-12-13T06:15:21.958Z,22.60
2022-12-13T06:20:27.913Z,21.17
2022-12-13T06:25:32.110Z,20.60
2022-12-13T06:30:35.086Z,19.17
2022-12-13T06:35:48.278Z,21.00
2022-12-13T06:40:51.177Z,21.23
2022-12-13T06:45:53.938Z,20.85
2022-12-13T06:51:01.678Z,22.05
2022-12-13T06:56:05.906Z,24.63
2022-12-13T07:01:14.807Z,24.55
2022-12-13T07:06:22.077Z,22.90
2022-12-13T07:11:28.974Z,24.80
2022-12-13T07:16:31.819Z,23.42
2022-12-13T07:21:36.456Z,25.73
2022-12-13T07:26:39.570Z,26.33
2022-12-13T07:31:44.455Z,26.40
2022-12-13T07:36:50.334Z,24.88
2022-12-13T07:41:55.723Z,26.48
2022-12-13T07:46:58.636Z,28.33
2022-12-13T07:52:04.447Z,28.75
2022-12-13T07:57:07.721Z,28.33
2022-12-13T08:02:14.305Z,27.48
2022-12-13T08:07:18.900Z,26.10
2022-12-13T08:12:22.665Z,28.10
2022-12-13T08:17:26.765Z,28.58
2022-12-13T08:22:36.077Z,27.55
2022-12-13T08:27:39.312Z,26.58
2022-12-13T08:32:46.502Z,34.42
2022-12-13T08:37:54.439Z,29.25
2022-12-13T08:48:03.598Z,28.25
2022-12-13T08:53:07.697Z,33.85
2022-12-13T08:58:11.790Z,44.28
2022-12-13T09:03:14.720Z,24.35
2022-12-13T09:08:24.823Z,26.10
2022-12-13T09:13:31.885Z,23.67
2022-12-13T09:18:36.482Z,23.13
2022-12-13T09:23:45.842Z,22.05
2022-12-13T09:28:49.314Z,24.35
2022-12-13T09:33:52.237Z,19.95
2022-12-13T09:38:58.992Z,21.52
2022-12-13T09:44:06.187Z,17.38
2022-12-13T09:54:51.021Z,19.38
2022-12-13T10:00:01.007Z,17.05
2022-12-13T10:05:22.826Z,20.20
2022-12-13T10:10:29.090Z,21.20
2022-12-13T10:15:37.132Z,20.80
2022-12-13T10:20:40.102Z,20.63
2022-12-13T10:25:51.575Z,19.23
2022-12-13T10:30:56.551Z,20.70
2022-12-13T10:36:09.108Z,20.52
2022-12-13T10:41:38.489Z,22.50
2022-12-13T10:46:51.898Z,20.23
2022-12-13T10:52:03.835Z,16.83
2022-12-13T10:57:12.701Z,21.60
2022-12-13T11:02:37.534Z,24.70
2022-12-13T11:07:40.479Z,24.15
2022-12-13T11:12:44.930Z,26.80
2022-12-13T11:17:51.276Z,22.17
2022-12-13T11:23:02.868Z,21.92
2022-12-13T11:28:26.555Z,23.73
2022-12-13T11:33:48.287Z,26.02
2022-12-13T11:39:05.138Z,23.30
2022-12-13T11:44:17.576Z,22.60
2022-12-13T11:49:34.555Z,21.33
2022-12-13T11:54:52.047Z,19.92
2022-12-13T12:00:15.423Z,20.52
2022-12-13T12:05:42.498Z,36.58
2022-12-13T12:10:50.385Z,38.00
2022-12-13T12:16:07.884Z,25.73
2022-12-13T12:21:37.287Z,17.23
2022-12-13T12:27:00.706Z,19.45
2022-12-13T12:32:11.957Z,21.58
2022-12-13T12:37:25.958Z,23.17
2022-12-13T12:43:14.467Z,19.95
2022-12-13T12:49:00.618Z,14.82
2022-12-13T12:54:14.081Z,14.90
2022-12-13T12:59:27.893Z,17.02
2022-12-13T13:04:39.119Z,19.17
2022-12-13T13:09:43.484Z,16.67
2022-12-13T13:14:46.695Z,16.20
2022-12-13T13:20:07.832Z,17.92
2022-12-13T13:25:25.810Z,14.13
2022-12-13T13:30:30.744Z,14.05
2022-12-13T13:35:54.897Z,15.73
2022-12-13T13:40:57.955Z,13.88
2022-12-13T13:46:11.086Z,16.45
2022-12-13T13:51:49.338Z,16.90
2022-12-13T13:58:08.243Z,16.50
2022-12-13T14:03:54.827Z,16.08
2022-12-13T14:09:15.930Z,16.80
2022-12-13T14:15:11.576Z,15.93
2022-12-13T14:20:42.222Z,16.40
2022-12-13T14:26:05.185Z,16.02
2022-12-13T14:31:21.602Z,19.08
2022-12-13T14:36:29.983Z,20.63
2022-12-13T14:41:45.942Z,23.40
2022-12-13T14:46:51.308Z,17.63
2022-12-13T14:52:01.268Z,17.23
2022-12-13T14:57:06.346Z,17.38
2022-12-13T15:02:17.090Z,15.75
2022-12-13T15:07:38.072Z,14.82
2022-12-13T15:12:43.806Z,9.27
2022-12-13T15:17:46.605Z,16.80
2022-12-13T15:23:06.951Z,15.00
2022-12-13T15:28:21.217Z,19.77
2022-12-13T15:33:34.357Z,16.17
2022-12-13T15:38:48.733Z,15.65
2022-12-13T15:43:55.059Z,14.05
2022-12-13T15:48:59.935Z,15.88
2022-12-13T15:54:05.862Z,15.77
2022-12-13T15:59:26.026Z,13.97
2022-12-13T16:04:31.197Z,15.55
2022-12-13T16:09:38.166Z,15.48
2022-12-13T16:14:49.324Z,16.40
2022-12-13T16:19:56.467Z,14.25
2022-12-13T16:25:00.412Z,17.63
2022-12-13T16:30:13.169Z,20.55
2022-12-13T16:35:16.477Z,21.27
2022-12-13T16:40:26.209Z,18.95
2022-12-13T16:45:41.691Z,18.65
2022-12-13T16:50:48.050Z,19.10
2022-12-13T16:56:00.256Z,20.63
2022-12-13T17:01:09.792Z,22.88
2022-12-13T17:06:15.514Z,21.55
2022-12-13T17:11:18.695Z,21.45
2022-12-13T17:16:22.966Z,20.08
2022-12-13T17:21:27.340Z,22.73
2022-12-13T17:26:30.490Z,20.05
2022-12-13T17:31:36.019Z,22.90
2022-12-13T17:36:39.142Z,22.67
2022-12-13T17:41:41.859Z,16.80
2022-12-13T17:46:47.576Z,18.27
2022-12-13T17:51:58.799Z,16.67
2022-12-13T17:57:01.517Z,21.88
2022-12-13T18:02:05.702Z,19.33
2022-12-13T18:07:09.101Z,18.92
2022-12-13T18:12:12.653Z,20.75
2022-12-13T18:17:18.990Z,20.75
2022-12-13T18:22:21.937Z,20.08
2022-12-13T18:27:24.854Z,16.48
2022-12-13T18:32:29.179Z,18.52
2022-12-13T18:37:37.076Z,18.02
2022-12-13T18:42:39.902Z,20.33
2022-12-13T18:47:46.970Z,19.95
2022-12-13T18:52:49.775Z,15.77
2022-12-13T18:57:52.649Z,15.63
2022-12-13T19:02:57.001Z,15.43
2022-12-13T19:07:59.711Z,14.95
2022-12-13T19:13:02.477Z,15.13
2022-12-13T19:18:07.067Z,18.33
2022-12-13T19:23:10.006Z,15.85
2022-12-13T19:28:13.946Z,14.50
2022-12-13T19:33:18.412Z,15.32
2022-12-13T19:38:21.318Z,14.90
2022-12-13T19:43:24.566Z,14.68
2022-12-13T19:48:29.210Z,15.80
2022-12-13T19:53:33.459Z,15.95
2022-12-13T19:58:36.454Z,12.20
2022-12-13T20:03:44.159Z,16.25
2022-12-13T20:08:48.174Z,17.35
2022-12-13T20:13:54.294Z,15.38
2022-12-13T20:18:59.846Z,15.80
2022-12-13T20:24:02.979Z,15.95
2022-12-13T20:29:06.488Z,10.25
2022-12-13T20:34:15.129Z,15.15
2022-12-13T20:39:17.913Z,14.13
2022-12-13T20:44:20.904Z,11.68
2022-12-13T20:49:25.117Z,16.23
2022-12-13T20:54:27.911Z,14.75
2022-12-13T20:59:30.636Z,14.18
2022-12-13T21:04:34.806Z,14.68
2022-12-13T21:09:40.829Z,15.98
2022-12-13T21:14:45.339Z,16.13
2022-12-13T21:19:52.378Z,15.93
2022-12-13T21:24:55.418Z,14.48
2022-12-13T21:29:58.164Z,15.60
2022-12-13T21:35:02.294Z,14.23
2022-12-13T21:40:06.637Z,15.88
2022-12-13T21:45:09.873Z,15.07
2022-12-13T21:50:14.063Z,13.70
2022-12-13T21:55:38.369Z,13.48
2022-12-13T22:00:39.885Z,12.40
2022-12-13T22:05:44.569Z,14.05
2022-12-13T22:11:02.084Z,11.50
2022-12-13T22:16:06.041Z,13.80
2022-12-13T22:21:10.175Z,14.68
2022-12-13T22:26:12.926Z,11.18
2022-12-13T22:31:16.098Z,11.75
2022-12-13T22:36:20.196Z,12.25
2022-12-13T22:41:24.233Z,15.27
2022-12-13T22:46:28.793Z,15.13
2022-12-13T22:51:33.028Z,13.10
2022-12-13T22:56:36.210Z,12.90
2022-12-13T23:01:40.556Z,12.07
2022-12-13T23:06:44.736Z,13.57
2022-12-13T23:12:04.922Z,11.88
2022-12-13T23:17:08.078Z,12.90
2022-12-13T23:22:13.833Z,11.45
2022-12-13T23:27:16.651Z,11.53
2022-12-13T23:32:20.467Z,12.05
2022-12-13T23:37:24.614Z,12.85
2022-12-13T23:42:30.005Z,10.73
2022-12-13T23:47:32.785Z,9.05
2022-12-13T23:52:37.673Z,9.30
2022-12-13T23:57:40.372Z,8.50
